createdAt,value
2022-12-24T00:02:07.056Z,6.60
2022-12-24T00:07:30.146Z,4.82
2022-12-24T00:12:51.841Z,8.88
2022-12-24T00:18:13.708Z,6.25
2022-12-24T00:23:35.541Z,7.82
2022-12-24T00:28:57.277Z,9.07
2022-12-24T00:34:19.011Z,9.45
2022-12-24T00:39:40.754Z,9.75
2022-12-24T00:45:02.512Z,8.32
2022-12-24T00:50:24.406Z,6.47
2022-12-24T00:55:46.210Z,5.47
2022-12-24T01:01:08.161Z,7.32
2022-12-24T01:06:29.933Z,5.47
2022-12-24T01:11:51.625Z,6.63
2022-12-24T01:17:13.394Z,5.78
2022-12-24T01:22:36.028Z,8.30
2022-12-24T01:27:57.801Z,6.88
2022-12-24T01:33:19.659Z,6.20
2022-12-24T01:38:41.465Z,5.95
2022-12-24T01:44:36.187Z,7.05
2022-12-24T01:50:01.908Z,7.55
2022-12-24T01:55:25.443Z,8.07
2022-12-24T02:00:47.249Z,7.60
2022-12-24T02:06:12.168Z,7.25
2022-12-24T02:11:37.031Z,6.17
2022-12-24T02:17:26.465Z,4.57
2022-12-24T02:23:07.045Z,7.80
2022-12-24T02:28:58.493Z,4.38
2022-12-24T02:34:28.292Z,7.90
2022-12-24T02:39:55.609Z,4.68
2022-12-24T02:45:22.943Z,5.03
2022-12-24T02:51:06.625Z,4.93
2022-12-24T02:56:35.912Z,5.55
2022-12-24T03:02:09.706Z,6.85
2022-12-24T03:08:00.523Z,5.57
2022-12-24T03:13:23.960Z,6.20
2022-12-24T03:18:48.286Z,6.35
2022-12-24T03:24:11.410Z,5.07
2022-12-24T03:29:33.583Z,5.50
2022-12-24T03:34:56.435Z,7.20
2022-12-24T03:40:18.206Z,7.47
2022-12-24T03:45:40.113Z,5.28
2022-12-24T03:51:02.614Z,5.72
2022-12-24T03:56:25.150Z,5.05
2022-12-24T04:01:47.110Z,4.40
2022-12-24T04:07:09.019Z,7.88
2022-12-24T04:12:30.752Z,5.10
2022-12-24T04:17:52.440Z,3.90
2022-12-24T04:23:14.388Z,6.10
2022-12-24T04:28:37.067Z,4.55
2022-12-24T04:33:58.756Z,5.90
2022-12-24T04:39:20.424Z,2.55
2022-12-24T04:44:42.189Z,4.22
2022-12-24T04:50:04.502Z,3.50
2022-12-24T04:55:26.345Z,3.63
2022-12-24T05:00:48.128Z,4.72
2022-12-24T05:06:13.422Z,4.72
2022-12-24T05:11:35.085Z,2.65
2022-12-24T05:16:56.910Z,5.68
2022-12-24T05:22:37.380Z,3.70
2022-12-24T05:27:59.086Z,4.20
2022-12-24T05:33:20.777Z,3.55
2022-12-24T05:38:42.673Z,3.55
2022-12-24T05:44:04.477Z,5.35
2022-12-24T05:49:26.159Z,5.15
2022-12-24T05:54:47.860Z,2.97
2022-12-24T06:00:10.642Z,3.53
2022-12-24T06:05:32.376Z,3.90
2022-12-24T06:11:02.137Z,3.42
2022-12-24T06:16:25.271Z,2.75
2022-12-24T06:21:47.087Z,5.72
2022-12-24T06:27:08.844Z,5.70
2022-12-24T06:32:31.117Z,4.07
2022-12-24T06:37:52.826Z,5.32
2022-12-24T06:43:15.492Z,4.63
2022-12-24T06:48:37.150Z,3.67
2022-12-24T06:53:58.795Z,2.95
2022-12-24T06:59:20.630Z,2.78
2022-12-24T07:04:42.336Z,3.22
2022-12-24T07:10:05.330Z,5.05
2022-12-24T07:15:27.074Z,5.03
2022-12-24T07:20:48.810Z,1.73
2022-12-24T07:26:10.981Z,3.75
2022-12-24T07:31:33.104Z,3.75
2022-12-24T07:36:54.880Z,5.18
2022-12-24T07:42:16.607Z,5.72
2022-12-24T07:47:38.400Z,5.70
2022-12-24T07:53:00.129Z,5.45
2022-12-24T07:58:22.944Z,5.65
2022-12-24T08:03:45.409Z,8.13
2022-12-24T08:09:07.558Z,9.88
2022-12-24T08:14:30.174Z,11.05
2022-12-24T08:19:52.098Z,8.27
2022-12-24T08:25:13.858Z,7.63
2022-12-24T08:30:35.555Z,11.90
2022-12-24T08:35:57.320Z,11.52
2022-12-24T08:41:19.031Z,24.85
2022-12-24T08:46:40.784Z,24.25
2022-12-24T08:52:02.545Z,15.88
2022-12-24T08:57:24.318Z,34.00
2022-12-24T09:02:46.088Z,36.75
2022-12-24T09:08:07.794Z,27.02
2022-12-24T09:13:29.452Z,20.90
2022-12-24T09:18:51.159Z,16.55
2022-12-24T09:24:12.836Z,19.67
2022-12-24T09:29:34.543Z,11.95
2022-12-24T09:34:56.223Z,15.73
2022-12-24T09:40:29.376Z,13.07
2022-12-24T09:46:14.405Z,13.73
2022-12-24T09:51:47.800Z,8.70
2022-12-24T09:57:20.050Z,16.67
2022-12-24T10:02:42.204Z,47.63
2022-12-24T10:08:33.151Z,42.60
2022-12-24T10:14:03.492Z,25.67
2022-12-24T10:19:49.609Z,29.08
2022-12-24T10:25:43.182Z,26.88
2022-12-24T10:31:08.030Z,24.13
2022-12-24T10:36:31.365Z,16.93
2022-12-24T10:41:57.903Z,19.88
2022-12-24T10:47:22.249Z,12.68
2022-12-24T10:52:45.425Z,18.50
2022-12-24T10:58:16.219Z,15.60
2022-12-24T11:03:42.648Z,14.65
2022-12-24T11:09:31.475Z,13.50
2022-12-24T11:15:07.217Z,17.95
2022-12-24T11:20:30.247Z,14.18
2022-12-24T11:25:52.981Z,21.15
2022-12-24T11:31:27.838Z,13.60
2022-12-24T11:36:51.520Z,10.65
2022-12-24T11:42:42.343Z,14.60
2022-12-24T11:48:31.657Z,11.63
2022-12-24T11:54:02.995Z,9.68
2022-12-24T11:59:36.033Z,13.55
2022-12-24T12:05:00.826Z,14.35
2022-12-24T12:10:25.421Z,7.30
2022-12-24T12:15:47.229Z,9.80
2022-12-24T12:21:24.786Z,8.32
2022-12-24T12:26:47.876Z,9.13
2022-12-24T12:32:25.996Z,10.18
2022-12-24T12:38:25.025Z,6.30
2022-12-24T12:43:49.420Z,8.25
2022-12-24T12:49:20.096Z,9.30
2022-12-24T12:55:00.701Z,7.05
2022-12-24T13:00:22.448Z,4.75
2022-12-24T13:06:08.320Z,7.65
2022-12-24T13:11:38.877Z,8.07
2022-12-24T13:17:20.138Z,14.98
2022-12-24T13:22:49.515Z,11.68
2022-12-24T13:28:34.154Z,11.10
2022-12-24T13:33:58.931Z,15.27
2022-12-24T13:39:20.703Z,11.73
2022-12-24T13:44:42.400Z,17.83
2022-12-24T13:50:21.384Z,15.30
2022-12-24T13:55:54.827Z,11.70
2022-12-24T14:01:20.443Z,14.30
2022-12-24T14:06:42.718Z,23.75
2022-12-24T14:12:04.319Z,21.13
2022-12-24T14:17:29.874Z,14.05
2022-12-24T14:22:52.263Z,19.15
2022-12-24T14:28:22.149Z,13.75
2022-12-24T14:33:44.907Z,18.30
2022-12-24T14:39:11.475Z,13.20
2022-12-24T14:45:17.359Z,12.13
2022-12-24T14:50:44.948Z,20.58
2022-12-24T14:56:14.696Z,32.53
2022-12-24T15:01:36.652Z,27.35
2022-12-24T15:06:59.620Z,24.17
2022-12-24T15:12:23.397Z,17.80
2022-12-24T15:17:46.260Z,16.45
2022-12-24T15:23:19.735Z,12.23
2022-12-24T15:28:41.548Z,16.70
2022-12-24T15:34:03.305Z,13.25
2022-12-24T15:39:24.972Z,12.75
2022-12-24T15:45:08.343Z,16.42
2022-12-24T15:50:31.461Z,20.35
2022-12-24T15:56:10.072Z,12.98
2022-12-24T16:01:31.830Z,13.45
2022-12-24T16:07:05.026Z,22.70
2022-12-24T16:12:26.902Z,20.25
2022-12-24T16:17:49.568Z,23.13
2022-12-24T16:23:18.688Z,11.25
2022-12-24T16:28:40.395Z,10.63
2022-12-24T16:34:03.183Z,18.88
2022-12-24T16:39:35.217Z,28.60
2022-12-24T16:44:56.958Z,29.33
2022-12-24T16:50:19.177Z,32.80
2022-12-24T16:55:40.844Z,16.35
2022-12-24T17:01:09.764Z,18.05
2022-12-24T17:06:31.591Z,13.32
2022-12-24T17:11:53.364Z,16.63
2022-12-24T17:17:27.455Z,11.65
2022-12-24T17:22:49.530Z,10.82
2022-12-24T17:28:11.220Z,17.52
2022-12-24T17:33:32.895Z,9.60
2022-12-24T17:38:54.594Z,12.00
2022-12-24T17:44:16.718Z,11.77
2022-12-24T17:49:38.429Z,10.40
2022-12-24T17:55:00.210Z,14.40
2022-12-24T18:00:22.005Z,16.85
2022-12-24T18:05:43.792Z,15.68
2022-12-24T18:11:27.269Z,19.27
2022-12-24T18:16:49.857Z,23.77
2022-12-24T18:22:11.626Z,24.15
2022-12-24T18:27:35.291Z,27.92
2022-12-24T18:32:56.969Z,27.60
2022-12-24T18:38:22.929Z,28.70
2022-12-24T18:43:45.101Z,31.17
2022-12-24T18:49:06.926Z,29.60
2022-12-24T18:54:28.667Z,29.58
2022-12-24T18:59:50.326Z,30.80
2022-12-24T19:05:14.869Z,28.08
2022-12-24T19:10:37.905Z,26.80
2022-12-24T19:15:59.992Z,25.20
2022-12-24T19:21:22.191Z,25.80
2022-12-24T19:26:44.215Z,25.17
2022-12-24T19:32:05.939Z,22.73
2022-12-24T19:37:27.612Z,21.88
2022-12-24T19:42:51.992Z,18.92
2022-12-24T19:48:13.703Z,17.92
2022-12-24T19:53:36.333Z,19.23
2022-12-24T19:58:59.008Z,38.97
2022-12-24T20:04:21.800Z,37.20
2022-12-24T20:09:43.567Z,38.60
2022-12-24T20:15:05.885Z,33.60
2022-12-24T20:20:27.560Z,47.58
2022-12-24T20:25:58.714Z,50.55
2022-12-24T20:31:26.639Z,47.03
2022-12-24T20:36:48.352Z,34.28
2022-12-24T20:42:11.623Z,32.70
2022-12-24T20:47:33.950Z,36.08
2022-12-24T20:52:55.653Z,36.85
2022-12-24T20:58:18.337Z,24.77
2022-12-24T21:03:40.114Z,27.92
2022-12-24T21:09:02.911Z,25.30
2022-12-24T21:14:27.297Z,24.60
2022-12-24T21:19:48.988Z,18.23
2022-12-24T21:25:11.954Z,22.13
2022-12-24T21:30:33.680Z,15.73
2022-12-24T21:35:59.440Z,23.90
2022-12-24T21:41:26.139Z,23.30
2022-12-24T21:46:47.932Z,17.17
2022-12-24T21:52:09.599Z,14.10
2022-12-24T21:57:51.646Z,12.55
2022-12-24T22:03:13.390Z,15.23
2022-12-24T22:08:53.930Z,10.73
2022-12-24T22:14:16.754Z,10.20
2022-12-24T22:19:38.435Z,8.55
2022-12-24T22:25:00.198Z,9.95
2022-12-24T22:30:22.031Z,13.23
2022-12-24T22:35:43.749Z,13.48
2022-12-24T22:41:09.409Z,13.80
2022-12-24T22:46:31.231Z,12.65
2022-12-24T22:51:52.959Z,9.80
2022-12-24T22:57:14.610Z,6.93
2022-12-24T23:02:36.402Z,9.32
2022-12-24T23:07:58.212Z,7.53
2022-12-24T23:13:38.942Z,4.45
2022-12-24T23:19:03.310Z,6.93
2022-12-24T23:24:25.157Z,4.47
2022-12-24T23:29:46.917Z,6.63
2022-12-24T23:35:09.248Z,4.25
2022-12-24T23:40:30.945Z,4.95
2022-12-24T23:45:54.052Z,9.18
2022-12-24T23:51:19.083Z,4.82
2022-12-24T23:56:40.767Z,5.00
